createdAt,value
2022-11-29T00:01:50.540Z,102800.69
2022-11-29T00:04:18.823Z,102804.25
2022-11-29T00:06:46.722Z,102809.75
2022-11-29T00:09:14.723Z,102814.78
2022-11-29T00:12:04.441Z,102810.09
2022-11-29T00:14:32.381Z,102809.50
2022-11-29T00:17:06.201Z,102809.50
2022-11-29T00:19:36.263Z,102807.28
2022-11-29T00:22:05.266Z,102814.28
2022-11-29T00:24:33.275Z,102812.22
2022-11-29T00:27:01.669Z,102820.06
2022-11-29T00:29:30.469Z,102813.28
2022-11-29T00:31:58.510Z,102807.19
2022-11-29T00:34:26.483Z,102803.00
2022-11-29T00:36:54.811Z,102812.16
2022-11-29T00:39:22.705Z,102784.28
2022-11-29T00:41:50.538Z,102803.53
2022-11-29T00:44:20.575Z,102792.19
2022-11-29T00:46:49.712Z,102799.87
2022-11-29T00:49:19.597Z,102803.34
2022-11-29T00:51:48.035Z,102799.06
2022-11-29T00:54:17.041Z,102811.25
2022-11-29T00:56:44.939Z,102807.00
2022-11-29T00:59:13.247Z,102796.78
2022-11-29T01:01:44.692Z,102798.63
2022-11-29T01:04:12.844Z,102794.03
2022-11-29T01:06:44.282Z,102790.25
2022-11-29T01:09:12.171Z,102792.16
2022-11-29T01:11:43.309Z,102792.69
2022-11-29T01:14:14.723Z,102793.81
2022-11-29T01:16:42.712Z,102787.94
2022-11-29T01:19:11.106Z,102793.22
2022-11-29T01:21:39.350Z,102787.41
2022-11-29T01:24:07.358Z,102788.69
2022-11-29T01:26:35.301Z,102790.16
2022-11-29T01:29:06.425Z,102794.72
2022-11-29T01:31:38.200Z,102787.91
2022-11-29T01:34:07.640Z,102791.16
2022-11-29T01:36:35.858Z,102789.66
2022-11-29T01:39:07.209Z,102795.13
2022-11-29T01:41:37.689Z,102780.00
2022-11-29T01:44:14.611Z,102795.44
2022-11-29T01:46:48.013Z,102793.41
2022-11-29T01:49:21.732Z,102788.00
2022-11-29T01:52:03.019Z,102795.09
2022-11-29T01:54:33.000Z,102787.91
2022-11-29T01:57:05.891Z,102788.75
2022-11-29T01:59:35.002Z,102783.91
2022-11-29T02:02:16.400Z,102790.59
2022-11-29T02:04:48.742Z,102787.25
2022-11-29T02:07:17.625Z,102790.16
2022-11-29T02:09:45.538Z,102784.84
2022-11-29T02:12:52.765Z,102787.84
2022-11-29T02:15:43.007Z,102788.03
2022-11-29T02:18:17.499Z,102790.44
2022-11-29T02:21:13.687Z,102795.25
2022-11-29T02:23:41.530Z,102796.16
2022-11-29T02:26:33.044Z,102792.09
2022-11-29T02:29:35.053Z,102789.22
2022-11-29T02:32:40.776Z,102787.41
2022-11-29T02:35:50.653Z,102786.91
2022-11-29T02:38:50.721Z,102795.34
2022-11-29T02:41:30.702Z,102794.84
2022-11-29T02:44:12.883Z,102801.16
2022-11-29T02:46:57.744Z,102792.69
2022-11-29T02:49:59.299Z,102782.97
2022-11-29T02:52:46.899Z,102801.22
2022-11-29T02:55:22.636Z,102800.13
2022-11-29T02:58:03.082Z,102809.69
2022-11-29T03:00:35.983Z,102807.59
2022-11-29T03:03:15.085Z,102810.81
2022-11-29T03:06:02.917Z,102806.78
2022-11-29T03:08:51.533Z,102809.37
2022-11-29T03:11:33.760Z,102807.84
2022-11-29T03:14:04.402Z,102807.50
2022-11-29T03:16:42.724Z,102811.38
2022-11-29T03:19:27.785Z,102812.78
2022-11-29T03:22:20.051Z,102809.37
2022-11-29T03:24:55.752Z,102807.22
2022-11-29T03:27:42.659Z,102814.81
2022-11-29T03:30:14.258Z,102807.06
2022-11-29T03:33:13.370Z,102808.38
2022-11-29T03:36:02.301Z,102812.72
2022-11-29T03:38:41.423Z,102817.94
2022-11-29T03:41:21.777Z,102820.41
2022-11-29T03:44:30.216Z,102815.84
2022-11-29T03:47:09.640Z,102830.75
2022-11-29T03:49:46.738Z,102823.84
2022-11-29T03:52:21.221Z,102830.53
2022-11-29T03:55:36.689Z,102815.34
2022-11-29T03:58:38.827Z,102828.81
2022-11-29T04:01:24.571Z,102831.16
2022-11-29T04:04:17.731Z,102844.28
2022-11-29T04:07:16.792Z,102832.91
2022-11-29T04:10:09.743Z,102839.56
2022-11-29T04:12:55.515Z,102836.47
2022-11-29T04:15:58.876Z,102834.78
2022-11-29T04:19:05.490Z,102831.41
2022-11-29T04:21:56.376Z,102845.31
2022-11-29T04:24:33.454Z,102833.31
2022-11-29T04:27:07.377Z,102840.28
2022-11-29T04:29:51.392Z,102848.09
2022-11-29T04:33:04.413Z,102849.44
2022-11-29T04:35:51.533Z,102849.84
2022-11-29T04:38:54.505Z,102844.38
2022-11-29T04:41:49.445Z,102844.38
2022-11-29T04:44:45.018Z,102846.97
2022-11-29T04:47:34.120Z,102852.69
2022-11-29T04:50:04.954Z,102849.72
2022-11-29T04:52:54.545Z,102857.50
2022-11-29T04:55:47.258Z,102855.16
2022-11-29T04:58:24.040Z,102858.03
2022-11-29T05:01:15.825Z,102860.28
2022-11-29T05:04:08.830Z,102862.28
2022-11-29T05:06:45.436Z,102861.22
2022-11-29T05:09:28.184Z,102867.56
2022-11-29T05:11:56.339Z,102883.56
2022-11-29T05:15:01.995Z,102882.91
2022-11-29T05:17:51.203Z,102881.31
2022-11-29T05:20:35.110Z,102886.88
2022-11-29T05:23:21.827Z,102876.84
2022-11-29T05:26:01.707Z,102890.84
2022-11-29T05:28:47.927Z,102887.25
2022-11-29T05:31:37.799Z,102897.25
2022-11-29T05:34:18.204Z,102894.87
2022-11-29T05:37:36.711Z,102899.41
2022-11-29T05:40:31.195Z,102906.47
2022-11-29T05:43:23.938Z,102909.03
2022-11-29T05:45:57.929Z,102916.19
2022-11-29T05:48:50.182Z,102906.69
2022-11-29T05:51:38.660Z,102907.59
2022-11-29T05:54:42.147Z,102912.97
2022-11-29T05:57:36.348Z,102918.31
2022-11-29T06:00:06.954Z,102922.03
2022-11-29T06:03:18.333Z,102922.56
2022-11-29T06:06:16.273Z,102923.84
2022-11-29T06:08:57.287Z,102928.56
2022-11-29T06:11:33.320Z,102924.81
2022-11-29T06:14:16.871Z,102941.44
2022-11-29T06:17:02.929Z,102936.88
2022-11-29T06:19:46.245Z,102932.25
2022-11-29T06:22:31.100Z,102942.31
2022-11-29T06:25:31.908Z,102940.56
2022-11-29T06:28:41.492Z,102948.81
2022-11-29T06:31:18.169Z,102954.97
2022-11-29T06:34:15.446Z,102943.91
2022-11-29T06:36:57.817Z,102954.75
2022-11-29T06:39:26.340Z,102958.50
2022-11-29T06:41:54.142Z,102950.50
2022-11-29T06:44:25.181Z,102944.69
2022-11-29T06:47:07.502Z,102945.94
2022-11-29T06:49:51.499Z,102936.81
2022-11-29T06:52:45.802Z,102946.41
2022-11-29T06:55:43.072Z,102955.16
2022-11-29T06:58:21.241Z,102954.94
2022-11-29T07:01:00.834Z,102958.78
2022-11-29T07:03:32.026Z,102954.38
2022-11-29T07:06:05.281Z,102948.94
2022-11-29T07:08:33.882Z,102959.88
2022-11-29T07:11:02.024Z,102963.28
2022-11-29T07:13:30.021Z,102957.84
2022-11-29T07:16:08.060Z,102970.69
2022-11-29T07:18:53.145Z,102966.56
2022-11-29T07:21:43.061Z,102953.38
2022-11-29T07:24:33.998Z,102971.34
2022-11-29T07:27:08.361Z,102962.13
2022-11-29T07:29:54.037Z,102974.47
2022-11-29T07:33:03.801Z,102967.97
2022-11-29T07:35:46.277Z,102966.81
2022-11-29T07:38:45.822Z,102977.16
2022-11-29T07:41:30.766Z,102956.59
2022-11-29T07:44:21.555Z,102975.37
2022-11-29T07:46:49.624Z,102970.31
2022-11-29T07:49:17.817Z,102965.31
2022-11-29T07:51:45.627Z,102959.97
2022-11-29T07:54:18.328Z,102959.81
2022-11-29T07:56:46.665Z,102972.53
2022-11-29T07:59:14.946Z,102959.91
2022-11-29T08:01:42.935Z,102973.09
2022-11-29T08:04:11.301Z,102973.56
2022-11-29T08:06:39.371Z,102977.44
2022-11-29T08:09:07.941Z,102969.72
2022-11-29T08:11:36.076Z,102966.41
2022-11-29T08:14:05.507Z,102969.37
2022-11-29T08:16:33.599Z,102976.16
2022-11-29T08:19:01.837Z,102963.44
2022-11-29T08:21:29.568Z,102968.03
2022-11-29T08:23:57.509Z,102967.38
2022-11-29T08:26:31.256Z,102958.87
2022-11-29T08:28:59.677Z,102961.31
2022-11-29T08:31:27.996Z,102954.03
2022-11-29T08:33:55.750Z,102956.56
2022-11-29T08:36:23.755Z,102955.87
2022-11-29T08:38:57.793Z,102951.03
2022-11-29T08:41:31.563Z,102946.53
2022-11-29T08:43:59.780Z,102959.72
2022-11-29T08:46:47.667Z,102955.56
2022-11-29T08:49:15.942Z,102957.94
2022-11-29T08:51:43.753Z,102964.38
2022-11-29T08:54:11.667Z,102964.91
2022-11-29T08:59:27.921Z,102960.44
2022-11-29T09:01:59.386Z,102959.88
2022-11-29T09:04:27.241Z,102963.72
2022-11-29T09:06:55.053Z,102949.25
2022-11-29T09:09:23.243Z,102955.72
2022-11-29T09:11:51.235Z,102951.28
2022-11-29T09:14:19.753Z,102956.41
2022-11-29T09:16:48.117Z,102959.34
2022-11-29T09:19:16.030Z,102953.47
2022-11-29T09:21:43.878Z,102949.97
2022-11-29T09:24:12.216Z,102952.00
2022-11-29T09:26:42.910Z,102960.75
2022-11-29T09:29:14.726Z,102957.53
2022-11-29T09:31:46.856Z,102953.13
2022-11-29T09:34:17.268Z,102948.78
2022-11-29T09:36:45.677Z,102947.66
2022-11-29T09:39:13.686Z,102943.41
2022-11-29T09:42:12.627Z,102946.31
2022-11-29T09:45:05.424Z,102950.75
2022-11-29T09:47:58.272Z,102950.25
2022-11-29T09:50:37.012Z,102956.66
2022-11-29T09:53:44.044Z,102952.59
2022-11-29T09:56:41.686Z,102954.75
2022-11-29T09:59:29.178Z,102946.50
2022-11-29T10:02:06.089Z,102947.81
2022-11-29T10:04:40.746Z,102944.22
2022-11-29T10:07:22.533Z,102942.66
2022-11-29T10:10:02.205Z,102947.53
2022-11-29T10:12:37.723Z,102943.50
2022-11-29T10:15:17.463Z,102942.91
2022-11-29T10:18:34.862Z,102942.78
2022-11-29T10:21:13.668Z,102938.69
2022-11-29T10:23:49.086Z,102950.53
2022-11-29T10:26:18.500Z,102943.22
2022-11-29T10:28:48.990Z,102948.22
2022-11-29T10:31:27.569Z,102937.84
2022-11-29T10:34:00.185Z,102939.91
2022-11-29T10:36:34.351Z,102933.22
2022-11-29T10:39:11.393Z,102946.59
2022-11-29T10:41:41.678Z,102947.41
2022-11-29T10:44:14.924Z,102940.84
2022-11-29T10:46:43.537Z,102946.25
2022-11-29T10:49:15.959Z,102945.72
2022-11-29T10:51:47.876Z,102941.69
2022-11-29T10:54:34.044Z,102938.34
2022-11-29T10:57:02.688Z,102929.16
2022-11-29T10:59:32.674Z,102941.06
2022-11-29T11:02:02.181Z,102931.94
2022-11-29T11:04:32.900Z,102939.38
2022-11-29T11:07:03.066Z,102941.25
2022-11-29T11:10:18.038Z,102935.50
2022-11-29T11:13:04.615Z,102937.34
2022-11-29T11:15:33.408Z,102935.66
2022-11-29T11:18:05.202Z,102933.88
2022-11-29T11:20:37.284Z,102928.91
2022-11-29T11:23:08.300Z,102937.69
2022-11-29T11:25:40.899Z,102929.34
2022-11-29T11:28:38.803Z,102931.03
2022-11-29T11:31:10.068Z,102932.22
2022-11-29T11:33:42.975Z,102935.84
2022-11-29T11:36:20.093Z,102940.41
2022-11-29T11:38:58.231Z,102938.69
2022-11-29T11:41:49.770Z,102940.44
2022-11-29T11:44:48.692Z,102943.31
2022-11-29T11:47:25.292Z,102944.75
2022-11-29T11:50:05.178Z,102941.66
2022-11-29T11:52:56.011Z,102940.31
2022-11-29T11:55:38.731Z,102941.00
2022-11-29T11:58:13.035Z,102944.31
2022-11-29T12:01:12.568Z,102944.41
2022-11-29T12:03:49.960Z,102936.94
2022-11-29T12:06:54.651Z,102951.94
2022-11-29T12:09:43.851Z,102950.28
2022-11-29T12:12:20.529Z,102949.19
2022-11-29T12:14:54.771Z,102960.53
2022-11-29T12:17:22.849Z,102937.03
2022-11-29T12:20:18.755Z,102954.41
2022-11-29T12:23:12.925Z,102948.87
2022-11-29T12:26:19.235Z,102957.50
2022-11-29T12:29:00.452Z,102963.22
2022-11-29T12:31:31.233Z,102955.94
2022-11-29T12:34:22.243Z,102949.59
2022-11-29T12:37:09.263Z,102958.72
2022-11-29T12:39:43.016Z,102951.13
2022-11-29T12:42:19.847Z,102956.41
2022-11-29T12:44:47.725Z,102950.50
2022-11-29T12:47:36.750Z,102955.00
2022-11-29T12:50:11.505Z,102955.87
2022-11-29T12:53:10.601Z,102950.41
2022-11-29T12:55:50.075Z,102947.31
2022-11-29T12:58:26.703Z,102948.94
2022-11-29T13:01:17.379Z,102951.87
2022-11-29T13:03:49.591Z,102945.84
2022-11-29T13:06:45.896Z,102939.69
2022-11-29T13:09:13.865Z,102940.91
2022-11-29T13:11:58.215Z,102935.50
2022-11-29T13:14:43.367Z,102939.13
2022-11-29T13:18:00.931Z,102940.66
2022-11-29T13:20:45.816Z,102944.91
2022-11-29T13:23:46.138Z,102950.84
2022-11-29T13:26:20.517Z,102952.06
2022-11-29T13:28:49.507Z,102950.97
2022-11-29T13:31:22.813Z,102957.72
2022-11-29T13:34:22.534Z,102952.97
2022-11-29T13:37:11.288Z,102957.81
2022-11-29T13:40:04.402Z,102954.78
2022-11-29T13:42:37.787Z,102960.00
2022-11-29T13:45:28.659Z,102963.66
2022-11-29T13:48:00.344Z,102965.06
2022-11-29T13:50:39.385Z,102952.47
2022-11-29T13:53:42.834Z,102956.09
2022-11-29T13:56:46.831Z,102953.78
2022-11-29T13:59:29.619Z,102953.59
2022-11-29T14:01:59.422Z,102954.47
2022-11-29T14:04:37.914Z,102954.56
2022-11-29T14:07:21.271Z,102953.09
2022-11-29T14:09:58.569Z,102954.56
2022-11-29T14:12:37.415Z,102950.91
2022-11-29T14:15:19.818Z,102948.66
2022-11-29T14:18:08.434Z,102949.56
2022-11-29T14:20:40.205Z,102951.03
2022-11-29T14:23:08.057Z,102943.25
2022-11-29T14:25:51.524Z,102939.16
2022-11-29T14:28:23.658Z,102947.53
2022-11-29T14:31:02.164Z,102949.31
2022-11-29T14:33:48.851Z,102945.94
2022-11-29T14:37:04.006Z,102945.56
2022-11-29T14:39:45.141Z,102945.56
2022-11-29T14:42:22.272Z,102930.53
2022-11-29T14:44:53.260Z,102943.66
2022-11-29T14:47:50.995Z,102947.66
2022-11-29T14:50:38.906Z,102943.44
2022-11-29T14:53:27.648Z,102943.12
2022-11-29T14:56:35.068Z,102945.19
2022-11-29T14:59:45.073Z,102937.34
2022-11-29T15:02:26.425Z,102942.13
2022-11-29T15:04:57.768Z,102943.25
2022-11-29T15:07:30.923Z,102947.03
2022-11-29T15:10:03.643Z,102937.72
2022-11-29T15:12:37.821Z,102942.41
2022-11-29T15:15:31.124Z,102934.06
2022-11-29T15:18:19.257Z,102937.59
2022-11-29T15:21:08.557Z,102934.87
2022-11-29T15:23:43.740Z,102949.88
2022-11-29T15:26:18.769Z,102952.72
2022-11-29T15:28:47.145Z,102951.81
2022-11-29T15:31:19.357Z,102944.91
2022-11-29T15:33:49.437Z,102942.00
2022-11-29T15:36:23.149Z,102944.91
2022-11-29T15:38:59.451Z,102940.34
2022-11-29T15:41:31.036Z,102935.53
2022-11-29T15:44:06.745Z,102934.25
2022-11-29T15:46:36.357Z,102940.22
2022-11-29T15:49:24.985Z,102938.87
2022-11-29T15:52:08.019Z,102944.25
2022-11-29T15:54:46.262Z,102938.56
2022-11-29T15:57:43.285Z,102935.09
2022-11-29T16:00:20.684Z,102929.97
2022-11-29T16:02:54.499Z,102929.69
2022-11-29T16:05:28.425Z,102935.78
2022-11-29T16:08:01.577Z,102938.19
2022-11-29T16:10:37.911Z,102944.13
2022-11-29T16:13:26.961Z,102946.31
2022-11-29T16:16:23.121Z,102939.94
2022-11-29T16:18:51.770Z,102945.50
2022-11-29T16:21:37.787Z,102944.97
2022-11-29T16:24:20.045Z,102938.78
2022-11-29T16:26:51.272Z,102940.38
2022-11-29T16:29:24.806Z,102935.94
2022-11-29T16:31:53.814Z,102938.22
2022-11-29T16:34:33.317Z,102943.09
2022-11-29T16:37:20.621Z,102938.56
2022-11-29T16:39:51.792Z,102933.56
2022-11-29T16:42:28.722Z,102938.84
2022-11-29T16:45:07.126Z,102934.59
2022-11-29T16:47:59.935Z,102938.81
2022-11-29T16:50:30.694Z,102944.72
2022-11-29T16:53:34.870Z,102938.22
2022-11-29T16:56:06.618Z,102935.19
2022-11-29T16:59:16.588Z,102929.09
2022-11-29T17:01:32.106Z,102927.78
2022-11-29T17:04:00.928Z,102930.72
2022-11-29T17:06:30.413Z,102924.44
2022-11-29T17:08:59.851Z,102923.81
2022-11-29T17:11:31.526Z,102923.59
2022-11-29T17:14:00.207Z,102918.91
2022-11-29T17:16:28.157Z,102924.38
2022-11-29T17:18:56.149Z,102930.47
2022-11-29T17:21:29.788Z,102927.87
2022-11-29T17:23:57.974Z,102932.59
2022-11-29T17:26:29.469Z,102921.03
2022-11-29T17:28:57.358Z,102929.28
2022-11-29T17:31:30.013Z,102918.56
2022-11-29T17:34:01.062Z,102932.03
2022-11-29T17:36:29.686Z,102932.88
2022-11-29T17:39:00.273Z,102929.38
2022-11-29T17:41:29.440Z,102932.34
2022-11-29T17:43:58.218Z,102935.53
2022-11-29T17:46:29.443Z,102929.97
2022-11-29T17:49:00.385Z,102930.66
2022-11-29T17:54:21.535Z,102939.25
2022-11-29T17:56:49.864Z,102926.81
2022-11-29T17:59:18.278Z,102935.31
2022-11-29T18:01:50.041Z,102933.69
2022-11-29T18:04:18.439Z,102937.75
2022-11-29T18:06:50.643Z,102928.25
2022-11-29T18:09:20.018Z,102944.22
2022-11-29T18:11:50.153Z,102948.91
2022-11-29T18:14:24.171Z,102941.94
2022-11-29T18:16:52.666Z,102948.13
2022-11-29T18:19:22.674Z,102946.13
2022-11-29T18:21:51.501Z,102950.44
2022-11-29T18:24:22.308Z,102956.50
2022-11-29T18:26:50.577Z,102948.19
2022-11-29T18:29:18.531Z,102955.06
2022-11-29T18:31:46.882Z,102949.09
2022-11-29T18:34:15.605Z,102958.44
2022-11-29T18:36:48.285Z,102948.69
2022-11-29T18:39:20.647Z,102953.41
2022-11-29T18:41:50.281Z,102947.06
2022-11-29T18:44:22.121Z,102946.25
2022-11-29T18:46:50.296Z,102951.38
2022-11-29T18:49:19.063Z,102942.78
2022-11-29T18:51:50.949Z,102948.97
2022-11-29T18:54:19.936Z,102945.25
2022-11-29T18:56:51.018Z,102945.37
2022-11-29T18:59:19.268Z,102942.06
2022-11-29T19:01:48.665Z,102945.09
2022-11-29T19:04:19.204Z,102949.31
2022-11-29T19:06:47.691Z,102943.47
2022-11-29T19:09:21.304Z,102949.03
2022-11-29T19:11:50.164Z,102935.69
2022-11-29T19:14:19.051Z,102953.16
2022-11-29T19:16:48.704Z,102951.47
2022-11-29T19:19:19.214Z,102948.63
2022-11-29T19:21:48.497Z,102940.75
2022-11-29T19:24:18.651Z,102942.94
2022-11-29T19:26:50.038Z,102948.69
2022-11-29T19:29:18.237Z,102940.12
2022-11-29T19:31:46.071Z,102934.25
2022-11-29T19:34:14.190Z,102938.78
2022-11-29T19:36:44.771Z,102933.91
2022-11-29T19:39:15.055Z,102935.66
2022-11-29T19:41:45.993Z,102930.66
2022-11-29T19:44:14.588Z,102930.91
2022-11-29T19:46:45.948Z,102929.06
2022-11-29T19:49:14.664Z,102932.84
2022-11-29T19:51:43.596Z,102921.47
2022-11-29T19:54:12.565Z,102940.28
2022-11-29T19:56:40.829Z,102935.28
2022-11-29T19:59:12.069Z,102934.66
2022-11-29T20:01:42.320Z,102939.28
2022-11-29T20:04:13.155Z,102942.25
2022-11-29T20:06:42.166Z,102956.59
2022-11-29T20:09:10.589Z,102949.25
2022-11-29T20:11:39.139Z,102956.47
2022-11-29T20:14:08.360Z,102957.91
2022-11-29T20:16:38.352Z,102952.22
2022-11-29T20:19:11.473Z,102961.91
2022-11-29T20:21:43.732Z,102953.31
2022-11-29T20:24:14.645Z,102951.94
2022-11-29T20:26:46.569Z,102954.88
2022-11-29T20:29:16.660Z,102955.56
2022-11-29T20:31:50.180Z,102962.09
2022-11-29T20:34:20.962Z,102949.13
2022-11-29T20:37:21.572Z,102960.00
2022-11-29T20:40:36.967Z,102954.88
2022-11-29T20:43:24.571Z,102951.06
2022-11-29T20:45:54.588Z,102948.75
2022-11-29T20:48:23.726Z,102942.94
2022-11-29T20:50:58.985Z,102949.13
2022-11-29T20:53:46.559Z,102954.66
2022-11-29T20:56:14.692Z,102950.94
2022-11-29T20:58:42.900Z,102956.75
2022-11-29T21:01:10.859Z,102962.28
2022-11-29T21:03:38.703Z,102953.84
2022-11-29T21:06:07.245Z,102959.53
2022-11-29T21:11:22.046Z,102946.00
2022-11-29T21:13:50.012Z,102953.53
2022-11-29T21:16:18.030Z,102954.63
2022-11-29T21:18:48.507Z,102947.66
2022-11-29T21:21:35.361Z,102959.34
2022-11-29T21:24:31.771Z,102956.78
2022-11-29T21:26:59.750Z,102960.47
2022-11-29T21:29:28.236Z,102949.59
2022-11-29T21:31:56.201Z,102964.91
2022-11-29T21:34:24.018Z,102966.31
2022-11-29T21:37:01.469Z,102951.38
2022-11-29T21:39:34.888Z,102972.22
2022-11-29T21:42:03.210Z,102974.94
2022-11-29T21:44:31.054Z,102971.97
2022-11-29T21:46:58.836Z,102974.56
2022-11-29T21:49:27.105Z,102968.06
2022-11-29T21:51:57.851Z,102967.28
2022-11-29T21:54:26.238Z,102956.22
2022-11-29T21:56:59.205Z,102972.56
2022-11-29T21:59:32.324Z,102973.53
2022-11-29T22:02:04.989Z,102969.56
2022-11-29T22:04:37.347Z,102953.22
2022-11-29T22:07:06.463Z,102967.47
2022-11-29T22:09:37.356Z,102965.03
2022-11-29T22:12:25.851Z,102960.75
2022-11-29T22:14:57.985Z,102967.22
2022-11-29T22:17:26.465Z,102969.84
2022-11-29T22:19:56.590Z,102963.69
2022-11-29T22:22:27.918Z,102968.66
2022-11-29T22:24:57.465Z,102959.97
2022-11-29T22:27:25.616Z,102968.13
2022-11-29T22:29:53.914Z,102976.09
2022-11-29T22:32:22.677Z,102966.56
2022-11-29T22:34:50.586Z,102971.78
2022-11-29T22:37:18.472Z,102968.56
2022-11-29T22:39:49.903Z,102974.97
2022-11-29T22:42:17.673Z,102977.75
2022-11-29T22:44:45.654Z,102974.63
2022-11-29T22:47:14.100Z,102985.75
2022-11-29T22:49:42.025Z,102979.09
2022-11-29T22:52:09.906Z,102980.13
2022-11-29T22:54:38.083Z,102984.44
2022-11-29T22:57:05.965Z,102984.84
2022-11-29T22:59:33.844Z,102989.09
2022-11-29T23:02:02.157Z,102982.41
2022-11-29T23:04:29.957Z,102991.53
2022-11-29T23:07:01.161Z,102998.66
2022-11-29T23:09:29.723Z,102992.34
2022-11-29T23:11:57.585Z,102991.06
2022-11-29T23:14:25.535Z,102976.63
2022-11-29T23:16:53.830Z,102992.91
2022-11-29T23:19:24.572Z,102997.53
2022-11-29T23:21:52.334Z,102991.59
2022-11-29T23:24:20.595Z,102989.72
2022-11-29T23:26:48.587Z,102998.69
2022-11-29T23:29:19.035Z,102999.84
2022-11-29T23:31:49.169Z,102995.41
2022-11-29T23:34:17.857Z,102997.94
2022-11-29T23:36:49.773Z,102998.25
2022-11-29T23:39:21.791Z,102990.75
2022-11-29T23:41:49.566Z,102983.53
2022-11-29T23:44:17.370Z,102990.88
2022-11-29T23:46:48.360Z,102993.34
2022-11-29T23:49:19.401Z,102998.78
2022-11-29T23:51:50.723Z,102992.69
2022-11-29T23:54:18.514Z,103001.69
2022-11-29T23:56:46.300Z,103001.78
2022-11-29T23:59:14.503Z,102994.81
